Time;durP1;ratioP1;P1;durP2;ratioP2;P2;SDS_P1;SDS_P2;PMS_P1;PMS_P2;Temp;Humidity;BMP_temperature;BMP_pressure;BME280_temperature;BME280_humidity;BME280_pressure;Samples;Min_cycle;Max_cycle;Signal;HPM_P1;HPM_P2
2022/02/07 00:02:12;;;;;;;4.93;2.77;;;;;;;;;;5058233;28;20238;-84
2022/02/07 00:04:39;;;;;;;20.30;7.87;;;;;;;;;;5052768;28;20200;-83
2022/02/07 00:07:05;;;;;;;7.83;4.43;;;3.20;99.90;;;;;;5034996;28;20189;-83
2022/02/07 00:09:34;;;;;;;11.67;5.83;;;;;;;;;;5056940;28;20582;-83
2022/02/07 00:12:00;;;;;;;5.37;3.00;;;;;;;;;;5051216;28;20216;-83
2022/02/07 00:14:26;;;;;;;7.53;3.37;;;3.30;99.90;;;;;;5036096;28;20309;-83
2022/02/07 00:16:52;;;;;;;6.53;3.27;;;3.20;99.90;;;;;;5063817;28;20628;-83
2022/02/07 00:19:20;;;;;;;5.00;3.30;;;;;;;;;;5068807;28;20292;-84
2022/02/07 00:21:47;;;;;;;8.63;4.60;;;;;;;;;;5070765;28;20183;-83
2022/02/07 00:24:13;;;;;;;6.60;3.77;;;;;;;;;;5057957;28;20213;-84
2022/02/07 00:26:39;;;;;;;11.30;5.83;;;;;;;;;;5051875;28;20269;-84
2022/02/07 00:29:05;;;;;;;5.43;3.87;;;;;;;;;;5059856;28;20188;-83
2022/02/07 00:31:30;;;;;;;7.47;3.70;;;3.10;99.90;;;;;;5072963;28;20252;-83
2022/02/07 00:33:56;;;;;;;4.67;2.67;;;;;;;;;;5064503;28;20184;-83
2022/02/07 00:36:22;;;;;;;5.00;2.57;;;;;;;;;;5049086;28;20553;-83
2022/02/07 00:38:53;;;;;;;6.40;3.67;;;;;;;;;;5066003;28;20177;-83
2022/02/07 00:41:23;;;;;;;5.13;2.70;;;;;;;;;;5066037;28;20245;-83
2022/02/07 00:43:54;;;;;;;4.30;2.30;;;;;;;;;;5054175;28;20180;-83
2022/02/07 00:46:31;;;;;;;7.27;3.03;;;3.40;99.90;;;;;;5055474;28;20187;-82
2022/02/07 00:48:57;;;;;;;7.67;2.57;;;;;;;;;;5057130;28;20170;-83
2022/02/07 00:51:24;;;;;;;3.80;2.57;;;;;;;;;;5052671;28;20290;-83
2022/02/07 00:53:50;;;;;;;6.20;2.70;;;;;;;;;;5042815;28;20231;-83
2022/02/07 00:56:16;;;;;;;3.73;2.70;;;;;;;;;;5072084;28;20183;-83
2022/02/07 00:58:42;;;;;;;10.80;4.97;;;3.70;99.90;;;;;;5074739;28;20187;-84
2022/02/07 01:01:08;;;;;;;4.30;2.60;;;;;;;;;;5053305;28;20636;-83
2022/02/07 01:03:34;;;;;;;3.87;2.40;;;;;;;;;;5065891;28;20186;-83
2022/02/07 01:06:00;;;;;;;5.37;2.60;;;;;;;;;;5044194;28;20190;-83
2022/02/07 01:08:41;;;;;;;3.47;2.57;;;;;;;;;;5054683;28;20638;-84
2022/02/07 01:11:15;;;;;;;3.10;2.47;;;;;;;;;;5062602;28;20188;-83
2022/02/07 01:16:34;;;;;;;5.53;2.77;;;;;;;;;;5055931;28;20195;-83
2022/02/07 01:22:04;;;;;;;4.23;2.13;;;;;;;;;;5074856;28;20679;-83
2022/02/07 01:46:55;;;;;;;4.47;2.40;;;;;;;;;;5074522;28;20207;-82
2022/02/07 01:52:04;;;;;;;3.23;1.87;;;;;;;;;;5058439;28;20668;-84
2022/02/07 01:54:39;;;;;;;3.63;2.50;;;;;;;;;;5047654;28;20603;-84
2022/02/07 01:57:08;;;;;;;1.87;1.60;;;;;;;;;;5042297;28;20267;-84
2022/02/07 01:59:35;;;;;;;3.17;1.87;;;;;;;;;;5043075;28;20254;-84
2022/02/07 02:02:01;;;;;;;2.17;1.30;;;;;;;;;;5072839;28;20184;-84
2022/02/07 02:04:27;;;;;;;2.30;1.90;;;;;;;;;;5054445;28;20214;-84
2022/02/07 02:06:53;;;;;;;2.77;1.80;;;4.40;99.90;;;;;;5062168;28;20674;-83
2022/02/07 02:09:19;;;;;;;1.70;1.30;;;;;;;;;;5061612;28;20196;-82
2022/02/07 02:11:45;;;;;;;2.33;1.90;;;;;;;;;;5054784;28;20196;-82
2022/02/07 02:14:25;;;;;;;2.57;1.63;;;;;;;;;;5037411;28;20184;-82
2022/02/07 02:45:36;;;;;;;2.83;1.90;;;;;;;;;;5098061;28;20225;-85
2022/02/07 02:48:08;;;;;;;3.07;1.90;;;4.30;99.90;;;;;;5099165;28;20245;-83
2022/02/07 02:50:47;;;;;;;2.97;1.60;;;;;;;;;;5098952;28;20242;-88
2022/02/07 02:53:15;;;;;;;3.43;1.73;;;4.30;99.90;;;;;;5097843;28;20246;-83
2022/02/07 02:55:43;;;;;;;2.17;1.60;;;4.30;99.90;;;;;;5098287;28;20155;-83
2022/02/07 02:58:11;;;;;;;2.13;1.77;;;4.30;99.90;;;;;;5081788;28;20169;-83
2022/02/07 03:00:38;;;;;;;2.13;1.80;;;4.20;99.90;;;;;;5097963;28;20181;-85
2022/02/07 03:03:04;;;;;;;2.87;1.90;;;4.20;99.90;;;;;;5078679;28;20183;-84
2022/02/07 03:05:30;;;;;;;2.00;1.70;;;4.30;99.90;;;;;;5077796;28;20196;-84
2022/02/07 03:07:56;;;;;;;2.30;1.93;;;4.30;99.90;;;;;;5064219;28;20176;-84
2022/02/07 03:10:29;;;;;;;2.83;1.80;;;4.40;99.90;;;;;;5064655;28;20539;-83
2022/02/07 03:18:10;;;;;;;2.97;1.67;;;;;;;;;;5074041;28;20187;-82
2022/02/07 03:20:36;;;;;;;5.17;2.17;;;;;;;;;;5073713;28;20179;-84
2022/02/07 03:23:02;;;;;;;4.83;1.60;;;;;;;;;;5074964;28;20227;-83
2022/02/07 03:25:27;;;;;;;4.07;2.33;;;4.30;99.90;;;;;;5075893;28;20255;-83
2022/02/07 03:27:53;;;;;;;2.53;1.67;;;;;;;;;;5075924;28;20510;-84
2022/02/07 03:30:19;;;;;;;2.60;1.93;;;3.90;99.90;;;;;;5058300;28;20187;-83
2022/02/07 03:32:45;;;;;;;1.80;1.50;;;3.90;99.90;;;;;;5075741;28;20179;-83
2022/02/07 03:35:10;;;;;;;3.30;2.03;;;3.80;99.90;;;;;;5065000;28;20621;-83
2022/02/07 03:37:36;;;;;;;4.07;2.13;;;4.20;99.90;;;;;;5038318;28;20241;-84
2022/02/07 03:40:02;;;;;;;3.87;2.00;;;4.10;99.90;;;;;;5055150;28;20178;-83
2022/02/07 03:42:29;;;;;;;2.93;1.83;;;4.20;99.90;;;;;;5065100;28;20249;-82
2022/02/07 03:44:55;;;;;;;3.73;2.10;;;;;;;;;;5039785;28;20201;-83
2022/02/07 03:47:21;;;;;;;2.63;2.37;;;3.90;99.90;;;;;;5041579;28;20224;-82
2022/02/07 03:49:46;;;;;;;4.23;2.67;;;3.80;99.90;;;;;;5039865;28;20197;-83
2022/02/07 03:52:12;;;;;;;3.03;2.03;;;;;;;;;;5055860;28;20184;-83
2022/02/07 03:54:38;;;;;;;3.87;2.37;;;4.00;99.90;;;;;;5061817;28;20318;-83
2022/02/07 03:57:04;;;;;;;4.33;2.37;;;3.80;99.90;;;;;;5030763;28;20190;-83
2022/02/07 03:59:30;;;;;;;4.27;2.20;;;3.40;99.90;;;;;;5046922;28;20180;-83
2022/02/07 04:01:55;;;;;;;6.67;3.00;;;3.40;99.90;;;;;;5056587;28;20178;-83
2022/02/07 04:04:22;;;;;;;3.93;2.40;;;3.70;99.90;;;;;;5039507;28;20709;-83
2022/02/07 04:06:48;;;;;;;6.33;2.57;;;;;;;;;;5037228;28;20279;-84
2022/02/07 04:09:19;;;;;;;3.33;1.97;;;;;;;;;;5056899;28;20208;-83
2022/02/07 04:11:51;;;;;;;4.07;2.47;;;;;;;;;;5038834;28;20636;-83
2022/02/07 04:14:23;;;;;;;3.27;2.37;;;3.20;99.90;;;;;;5054985;28;20663;-83
2022/02/07 04:16:49;;;;;;;8.50;2.70;;;3.70;99.90;;;;;;5055248;28;20277;-83
2022/02/07 04:19:20;;;;;;;7.47;2.63;;;4.10;99.90;;;;;;5056180;28;20337;-83
2022/02/07 04:21:49;;;;;;;4.03;2.43;;;3.60;99.90;;;;;;5042716;28;20184;-82
2022/02/07 04:24:15;;;;;;;4.37;2.50;;;;;;;;;;5055524;28;20215;-82
2022/02/07 04:26:41;;;;;;;4.00;2.93;;;3.30;99.90;;;;;;5064892;28;20260;-83
2022/02/07 04:29:07;;;;;;;6.37;2.37;;;;;;;;;;5055099;28;20222;-83
2022/02/07 04:31:33;;;;;;;4.80;2.77;;;;;;;;;;5039533;28;20180;-82
2022/02/07 04:33:58;;;;;;;6.80;2.70;;;3.40;99.90;;;;;;5061597;28;20186;-83
2022/02/07 04:36:24;;;;;;;4.40;2.70;;;3.20;99.90;;;;;;5059741;28;20629;-84
2022/02/07 04:38:50;;;;;;;3.97;2.37;;;3.50;99.90;;;;;;5041236;28;20215;-84
2022/02/07 04:41:16;;;;;;;3.70;2.33;;;;;;;;;;5056765;28;20180;-83
2022/02/07 04:43:53;;;;;;;3.47;2.43;;;;;;;;;;5072220;28;20652;-84
2022/02/07 04:46:41;;;;;;;3.67;2.27;;;3.30;99.90;;;;;;5050303;28;20627;-83
2022/02/07 04:52:05;;;;;;;3.07;2.27;;;;;;;;;;5032007;28;20636;-84
2022/02/07 04:57:10;;;;;;;3.10;2.03;;;3.20;99.90;;;;;;5058363;28;20189;-84
2022/02/07 05:02:23;;;;;;;1.90;1.80;;;3.10;99.90;;;;;;5059149;28;20312;-83
2022/02/07 05:15:51;;;;;;;4.73;2.50;;;;;;;;;;5067812;28;20735;-84
2022/02/07 05:18:20;;;;;;;8.77;4.23;;;3.20;99.90;;;;;;5057504;28;20187;-84
2022/02/07 05:20:46;;;;;;;5.17;2.23;;;3.20;99.90;;;;;;5041892;28;20313;-84
2022/02/07 05:23:11;;;;;;;3.30;2.40;;;2.90;99.90;;;;;;5073357;28;20191;-84
2022/02/07 05:25:38;;;;;;;4.63;1.60;;;3.10;99.90;;;;;;5029926;28;20214;-83
2022/02/07 05:28:04;;;;;;;3.87;2.03;;;3.30;99.90;;;;;;5051274;28;20181;-83
2022/02/07 05:30:31;;;;;;;3.13;1.80;;;;;;;;;;5069035;28;20543;-83
2022/02/07 05:32:56;;;;;;;3.43;2.03;;;;;;;;;;5054298;28;20673;-83
2022/02/07 05:35:22;;;;;;;2.73;1.70;;;3.30;99.90;;;;;;5058494;28;20283;-85
2022/02/07 05:37:48;;;;;;;2.40;2.20;;;;;;;;;;5047990;28;20175;-83
2022/02/07 05:40:27;;;;;;;3.10;1.30;;;;;;;;;;5069400;28;20247;-83
2022/02/07 05:42:53;;;;;;;2.30;1.53;;;;;;;;;;5059326;28;20182;-83
2022/02/07 05:45:19;;;;;;;1.63;1.50;;;;;;;;;;5059479;28;20229;-83
2022/02/07 05:47:45;;;;;;;4.70;3.50;;;;;;;;;;5066603;28;20190;-83
2022/02/07 05:50:11;;;;;;;2.30;1.73;;;3.20;99.90;;;;;;5043951;28;20294;-83
2022/02/07 05:52:37;;;;;;;2.17;1.73;;;3.30;99.90;;;;;;5035928;28;20560;-84
2022/02/07 05:55:03;;;;;;;6.20;1.63;;;3.00;99.90;;;;;;5061920;28;20653;-83
2022/02/07 05:57:28;;;;;;;1.90;1.40;;;3.40;99.90;;;;;;5049002;28;20180;-85
2022/02/07 05:59:54;;;;;;;1.77;1.67;;;3.30;99.90;;;;;;5058720;28;20207;-83
2022/02/07 06:02:19;;;;;;;4.73;2.07;;;3.30;99.90;;;;;;5037069;28;20215;-84
2022/02/07 06:04:45;;;;;;;3.50;1.70;;;3.50;99.90;;;;;;5054324;28;20643;-84
2022/02/07 06:07:11;;;;;;;5.63;2.63;;;3.30;99.90;;;;;;5050331;28;20193;-82
2022/02/07 06:09:37;;;;;;;7.20;3.53;;;;;;;;;;5050734;28;20687;-84
2022/02/07 06:12:03;;;;;;;50.87;16.07;;;3.20;99.90;;;;;;5032984;28;20192;-83
2022/02/07 06:14:29;;;;;;;46.97;16.50;;;;;;;;;;5037099;28;20668;-84
2022/02/07 06:16:55;;;;;;;70.70;22.73;;;2.90;99.90;;;;;;5053762;28;20283;-82
2022/02/07 06:19:21;;;;;;;28.20;11.07;;;2.90;99.90;;;;;;5054788;28;20197;-83
2022/02/07 06:21:46;;;;;;;37.03;12.90;;;3.10;99.90;;;;;;5035143;28;20199;-82
2022/02/07 06:24:12;;;;;;;21.20;6.57;;;2.80;99.90;;;;;;5017462;28;20290;-80
2022/02/07 06:26:38;;;;;;;27.07;10.70;;;2.90;99.90;;;;;;5052042;28;20295;-83
2022/02/07 06:29:04;;;;;;;57.37;21.30;;;2.90;99.90;;;;;;5053012;28;20539;-83
2022/02/07 06:31:30;;;;;;;71.57;27.60;;;3.00;99.90;;;;;;5048592;28;20176;-82
2022/02/07 06:33:55;;;;;;;60.60;27.30;;;3.10;99.90;;;;;;5045022;28;20320;-82
2022/02/07 06:36:21;;;;;;;62.20;25.60;;;2.70;99.90;;;;;;5053762;28;20595;-83
2022/02/07 06:38:48;;;;;;;59.10;22.43;;;3.00;99.90;;;;;;5031624;28;20285;-80
2022/02/07 06:41:14;;;;;;;72.20;26.10;;;2.80;99.90;;;;;;5046721;28;20195;-82
2022/02/07 06:43:40;;;;;;;82.87;29.03;;;2.80;99.90;;;;;;5056220;28;20214;-83
2022/02/07 06:46:06;;;;;;;103.47;35.37;;;2.70;99.90;;;;;;5048900;28;20281;-81
2022/02/07 06:48:32;;;;;;;103.80;36.70;;;2.70;99.90;;;;;;5077088;28;20180;-81
2022/02/07 06:50:58;;;;;;;100.87;35.83;;;;;;;;;;5056295;28;20610;-84
2022/02/07 06:53:26;;;;;;;101.57;36.50;;;2.60;99.90;;;;;;5050664;28;20235;-81
2022/02/07 06:55:52;;;;;;;90.10;32.00;;;3.00;99.90;;;;;;5043810;28;20189;-82
2022/02/07 06:58:18;;;;;;;80.47;29.47;;;2.50;99.90;;;;;;5036521;28;20183;-81
2022/02/07 07:00:51;;;;;;;69.50;26.43;;;2.80;99.90;;;;;;5138909;27;20523;-81
2022/02/07 07:03:19;;;;;;;53.30;21.13;;;2.60;99.90;;;;;;5113184;28;20672;-83
2022/02/07 07:05:48;;;;;;;44.80;19.10;;;2.60;99.90;;;;;;5127350;28;20189;-82
2022/02/07 07:08:14;;;;;;;26.43;10.43;;;2.60;99.90;;;;;;5093848;28;20189;-82
2022/02/07 07:10:39;;;;;;;18.80;7.70;;;2.70;99.90;;;;;;5093508;28;20613;-83
2022/02/07 07:13:15;;;;;;;13.57;7.07;;;2.70;99.90;;;;;;5092962;28;20183;-83
2022/02/07 07:15:47;;;;;;;12.67;6.03;;;2.90;99.90;;;;;;5110320;28;20251;-82
2022/02/07 07:18:13;;;;;;;11.43;5.80;;;2.60;99.90;;;;;;5089736;28;20637;-83
2022/02/07 07:20:39;;;;;;;10.97;6.43;;;3.20;99.90;;;;;;5094259;28;20240;-81
2022/02/07 07:23:05;;;;;;;9.07;5.13;;;2.80;99.90;;;;;;5108524;28;20634;-84
2022/02/07 07:25:31;;;;;;;14.23;4.93;;;3.40;99.90;;;;;;5129308;28;20226;-83
2022/02/07 07:30:29;;;;;;;7.37;4.63;;;3.30;99.90;;;;;;5124354;28;20401;-85
2022/02/07 07:33:00;;;;;;;8.20;4.90;;;2.90;99.90;;;;;;5126366;28;20272;-83
2022/02/07 07:35:26;;;;;;;7.17;3.83;;;3.00;99.90;;;;;;5125150;28;20181;-85
2022/02/07 07:37:52;;;;;;;6.70;4.17;;;3.20;99.90;;;;;;5127756;28;20239;-83
2022/02/07 07:40:18;;;;;;;8.63;4.17;;;3.10;99.90;;;;;;5108145;28;20212;-84
2022/02/07 07:42:51;;;;;;;13.47;4.80;;;3.10;99.90;;;;;;5125361;28;20358;-84
2022/02/07 07:45:19;;;;;;;12.90;5.03;;;3.10;99.90;;;;;;5078947;28;20552;-84
2022/02/07 07:47:47;;;;;;;9.87;4.63;;;3.10;99.90;;;;;;5122512;28;20184;-82
2022/02/07 07:50:38;;;;;;;7.87;4.10;;;3.40;99.90;;;;;;5110840;28;20628;-83
2022/02/07 07:54:11;;;;;;;9.50;4.73;;;;;;;;;;5125093;28;20186;-83
2022/02/07 08:01:26;;;;;;;7.67;5.33;;;3.20;99.90;;;;;;5093691;28;20562;-83
2022/02/07 08:03:54;;;;;;;13.40;5.90;;;3.10;99.90;;;;;;5074065;28;20174;-84
2022/02/07 08:06:28;;;;;;;12.43;6.43;;;;;;;;;;5087539;28;20198;-84
2022/02/07 08:11:32;;;;;;;13.57;6.23;;;3.30;99.90;;;;;;5080429;28;20281;-85
2022/02/07 08:14:00;;;;;;;9.63;4.90;;;3.10;99.90;;;;;;5091638;28;20212;-84
2022/02/07 08:16:26;;;;;;;11.83;4.50;;;3.10;99.90;;;;;;5073063;28;20665;-83
2022/02/07 08:18:53;;;;;;;6.33;3.73;;;3.70;99.90;;;;;;5077235;28;20218;-84
2022/02/07 08:21:19;;;;;;;12.73;4.37;;;4.40;99.90;;;;;;5076842;28;20193;-83
2022/02/07 08:23:45;;;;;;;9.23;4.07;;;2.70;99.90;;;;;;5043645;28;20297;-83
2022/02/07 08:26:11;;;;;;;9.80;4.40;;;2.80;99.90;;;;;;5071785;28;20177;-82
2022/02/07 08:28:37;;;;;;;5.70;3.00;;;2.70;99.90;;;;;;5081133;28;20704;-84
2022/02/07 08:31:03;;;;;;;7.70;3.60;;;2.90;99.90;;;;;;5084760;28;20207;-86
2022/02/07 08:33:30;;;;;;;7.30;3.93;;;;;;;;;;5064560;28;20179;-84
2022/02/07 08:35:56;;;;;;;5.47;3.40;;;2.90;99.90;;;;;;5059385;28;20256;-82
2022/02/07 08:38:21;;;;;;;9.43;3.60;;;2.80;99.90;;;;;;5065644;28;20203;-86
2022/02/07 08:40:47;;;;;;;8.63;3.67;;;;;;;;;;5071640;28;20237;-83
2022/02/07 08:43:13;;;;;;;12.90;5.00;;;2.70;99.90;;;;;;5090061;28;20199;-85
2022/02/07 08:45:39;;;;;;;18.60;5.20;;;2.80;99.90;;;;;;5074938;28;20174;-84
2022/02/07 08:48:06;;;;;;;19.67;5.23;;;3.50;99.90;;;;;;5063663;28;20171;-84
2022/02/07 08:50:33;;;;;;;9.50;4.83;;;2.70;99.90;;;;;;5096134;28;20186;-84
2022/02/07 08:53:00;;;;;;;7.23;3.00;;;2.30;99.90;;;;;;5060986;28;20220;-82
2022/02/07 08:55:34;;;;;;;7.87;4.77;;;;;;;;;;5090231;28;20174;-83
2022/02/07 08:58:05;;;;;;;8.13;4.20;;;2.70;99.90;;;;;;5075783;28;20254;-84
2022/02/07 09:03:30;;;;;;;6.63;4.47;;;2.90;99.90;;;;;;5135094;28;20216;-86
2022/02/07 09:06:12;;;;;;;7.10;3.90;;;2.70;99.90;;;;;;5138139;28;20178;-83
2022/02/07 09:09:20;;;;;;;6.23;4.30;;;2.60;99.90;;;;;;5138155;28;20190;-84
2022/02/07 09:11:20;;;;;;;5.63;3.40;;;2.60;99.90;;;;;;5122103;28;20185;-86
2022/02/07 09:13:46;;;;;;;5.27;3.47;;;;;;;;;;5121690;28;20173;-84
2022/02/07 09:16:29;;;;;;;5.23;2.93;;;2.40;99.90;;;;;;5131570;28;20181;-85
2022/02/07 09:19:00;;;;;;;7.40;3.80;;;2.50;99.90;;;;;;5133064;28;20204;-88
2022/02/07 09:21:28;;;;;;;5.53;3.30;;;2.50;99.90;;;;;;5120198;28;20169;-84
2022/02/07 09:23:55;;;;;;;5.97;3.40;;;2.50;99.90;;;;;;5131154;28;20244;-87
2022/02/07 09:26:21;;;;;;;8.27;3.83;;;2.50;99.90;;;;;;5136861;28;20177;-88
2022/02/07 09:28:47;;;;;;;5.97;4.10;;;;;;;;;;5112315;28;20593;-83
2022/02/07 09:31:14;;;;;;;6.53;3.80;;;2.40;99.90;;;;;;5111447;28;20268;-83
2022/02/07 09:33:46;;;;;;;6.37;3.97;;;2.50;99.90;;;;;;5112115;28;20273;-87
2022/02/07 09:36:14;;;;;;;7.67;4.50;;;3.40;99.90;;;;;;5096988;28;20205;-83
2022/02/07 09:38:40;;;;;;;6.83;4.07;;;;;;;;;;5108074;28;20197;-84
2022/02/07 09:41:08;;;;;;;8.33;3.83;;;2.50;99.90;;;;;;5109283;28;20182;-84
2022/02/07 09:43:41;;;;;;;5.23;3.50;;;2.50;99.90;;;;;;5113677;28;20702;-83
2022/02/07 09:46:11;;;;;;;7.20;4.43;;;2.40;99.90;;;;;;5098486;28;20178;-83
2022/02/07 09:48:40;;;;;;;7.00;4.13;;;2.40;99.90;;;;;;5108436;28;20213;-83
2022/02/07 09:51:10;;;;;;;5.67;3.93;;;2.20;99.90;;;;;;5105492;28;20536;-83
2022/02/07 09:53:38;;;;;;;9.63;4.10;;;2.50;99.90;;;;;;5111834;28;20191;-83
2022/02/07 09:56:06;;;;;;;6.90;4.33;;;3.80;99.90;;;;;;5094015;28;20540;-83
2022/02/07 09:58:34;;;;;;;8.20;4.63;;;;;;;;;;5108854;28;20181;-84
2022/02/07 10:01:02;;;;;;;5.53;3.50;;;4.50;99.90;;;;;;5072665;28;20185;-83
2022/02/07 10:03:42;;;;;;;7.13;4.47;;;3.10;99.90;;;;;;5057769;28;20340;-84
2022/02/07 10:06:20;;;;;;;6.37;4.07;;;3.30;99.90;;;;;;5092791;28;20706;-83
2022/02/07 10:08:58;;;;;;;10.63;5.63;;;3.10;99.90;;;;;;5073122;28;20182;-83
2022/02/07 10:16:41;;;;;;;5.33;3.60;;;3.30;99.90;;;;;;5074864;28;20182;-83
2022/02/07 10:47:18;;;;;;;6.73;4.23;;;3.20;99.90;;;;;;5087884;28;20186;-84
2022/02/07 10:50:03;;;;;;;4.47;3.47;;;3.20;99.90;;;;;;5088933;28;20243;-85
2022/02/07 10:52:54;;;;;;;3.63;2.90;;;3.10;99.90;;;;;;5089455;28;20179;-85
2022/02/07 10:55:30;;;;;;;4.80;3.80;;;3.10;99.90;;;;;;5068918;28;20175;-83
2022/02/07 10:58:00;;;;;;;7.90;3.43;;;3.10;99.90;;;;;;5068390;28;20183;-84
2022/02/07 11:00:32;;;;;;;4.07;3.00;;;3.10;99.90;;;;;;5070028;28;20230;-84
2022/02/07 11:05:57;;;;;;;7.23;4.33;;;3.10;99.90;;;;;;5090779;28;20197;-84
2022/02/07 11:08:30;;;;;;;3.83;3.03;;;2.80;99.90;;;;;;5087223;28;20183;-85
2022/02/07 11:11:13;;;;;;;5.70;3.67;;;2.90;99.90;;;;;;5068416;28;20274;-85
2022/02/07 11:14:05;;;;;;;6.50;3.60;;;2.90;99.90;;;;;;5065766;28;20635;-84
2022/02/07 11:21:42;;;;;;;5.00;3.60;;;2.70;99.90;;;;;;5070474;28;20282;-84
2022/02/07 11:27:30;;;;;;;3.97;3.10;;;2.50;99.90;;;;;;5087973;28;20225;-83
2022/02/07 11:29:57;;;;;;;7.83;4.93;;;2.60;99.90;;;;;;5069614;28;20235;-84
2022/02/07 11:32:46;;;;;;;4.87;3.57;;;2.80;99.90;;;;;;5055371;28;20373;-85
2022/02/07 11:35:12;;;;;;;3.97;2.80;;;;;;;;;;5091277;28;20198;-84
2022/02/07 11:37:38;;;;;;;4.10;3.20;;;2.70;99.90;;;;;;5070330;28;20643;-83
2022/02/07 11:40:25;;;;;;;3.77;2.70;;;2.40;99.90;;;;;;5070595;28;20222;-84
2022/02/07 11:43:10;;;;;;;5.10;3.20;;;2.40;99.90;;;;;;5070126;28;20183;-83
2022/02/07 11:45:58;;;;;;;4.93;3.03;;;3.20;99.90;;;;;;5090599;28;20655;-84
2022/02/07 11:48:29;;;;;;;6.73;3.00;;;2.50;99.90;;;;;;5076927;28;20533;-85
2022/02/07 11:50:58;;;;;;;5.20;3.13;;;2.50;99.90;;;;;;5074135;28;20252;-84
2022/02/07 11:53:46;;;;;;;5.03;3.33;;;2.70;99.90;;;;;;5075426;28;20182;-83
2022/02/07 11:59:38;;;;;;;3.47;2.87;;;2.30;99.90;;;;;;5091156;28;20665;-83
2022/02/07 12:02:08;;;;;;;4.00;3.57;;;2.40;99.90;;;;;;5074142;28;20205;-83
2022/02/07 12:04:44;;;;;;;3.37;2.37;;;2.20;99.90;;;;;;5075055;28;20510;-83
2022/02/07 12:07:21;;;;;;;7.90;3.80;;;2.20;99.90;;;;;;5076951;28;20906;-83
2022/02/07 12:09:59;;;;;;;4.20;3.07;;;2.30;99.90;;;;;;5089452;28;20259;-85
2022/02/07 12:12:38;;;;;;;3.87;2.80;;;2.20;99.90;;;;;;5068756;28;20189;-84
2022/02/07 12:15:06;;;;;;;8.87;4.73;;;2.20;99.90;;;;;;5089318;28;20597;-83
2022/02/07 12:17:46;;;;;;;8.00;5.97;;;2.20;99.90;;;;;;5073876;28;20186;-85
2022/02/07 12:20:14;;;;;;;9.70;5.90;;;2.10;99.90;;;;;;5073493;28;20749;-84
2022/02/07 12:22:48;;;;;;;9.80;5.57;;;2.10;99.90;;;;;;5075581;28;20192;-84
2022/02/07 12:25:51;;;;;;;11.57;7.57;;;2.00;99.90;;;;;;5076650;28;20626;-84
2022/02/07 12:29:14;;;;;;;12.63;8.23;;;2.00;99.90;;;;;;5034538;28;20186;-84
2022/02/07 12:31:20;;;;;;;17.73;10.07;;;1.80;99.90;;;;;;5084701;28;20232;-84
2022/02/07 12:33:59;;;;;;;17.43;9.93;;;1.90;99.90;;;;;;5072446;28;20722;-84
2022/02/07 12:36:27;;;;;;;21.33;13.63;;;1.90;99.90;;;;;;5074937;28;20183;-85
2022/02/07 12:38:55;;;;;;;23.07;12.60;;;3.50;99.90;;;;;;5091847;28;20218;-84
2022/02/07 12:41:23;;;;;;;24.63;14.10;;;1.80;99.90;;;;;;5076089;28;20209;-85
2022/02/07 12:43:51;;;;;;;26.17;15.23;;;2.00;99.90;;;;;;5072425;28;20193;-84
2022/02/07 12:46:19;;;;;;;26.07;15.77;;;2.00;99.90;;;;;;5093168;28;20190;-85
2022/02/07 12:49:01;;;;;;;20.57;12.30;;;3.80;99.90;;;;;;5090539;28;20189;-84
2022/02/07 12:51:30;;;;;;;25.80;15.00;;;1.80;99.90;;;;;;5077095;28;20287;-83
2022/02/07 12:53:57;;;;;;;17.77;10.93;;;3.60;99.90;;;;;;5090911;28;20261;-85
2022/02/07 12:56:26;;;;;;;23.33;12.83;;;2.00;99.90;;;;;;5074356;28;20186;-86
2022/02/07 12:58:52;;;;;;;14.73;10.83;;;2.30;99.90;;;;;;5094273;28;20232;-84
2022/02/07 13:01:25;;;;;;;15.83;10.50;;;1.90;99.90;;;;;;5094715;28;20187;-84
2022/02/07 13:03:54;;;;;;;16.03;10.57;;;1.90;99.90;;;;;;5094911;28;20175;-85
2022/02/07 13:06:38;;;;;;;15.80;9.50;;;1.80;99.90;;;;;;5074266;28;20183;-86
2022/02/07 13:09:27;;;;;;;14.27;9.57;;;3.10;99.90;;;;;;5094928;28;20196;-84
2022/02/07 13:12:02;;;;;;;12.83;7.53;;;1.90;99.90;;;;;;5099631;28;20185;-85
2022/02/07 13:14:29;;;;;;;14.17;8.63;;;1.80;99.90;;;;;;5108582;28;20178;-84
2022/02/07 13:16:56;;;;;;;16.13;10.17;;;1.80;99.90;;;;;;5079335;28;20178;-85
2022/02/07 13:19:24;;;;;;;15.90;11.20;;;3.60;99.90;;;;;;5075377;28;20211;-84
2022/02/07 13:21:53;;;;;;;20.07;13.13;;;1.70;99.90;;;;;;5077637;28;20553;-84
2022/02/07 13:24:20;;;;;;;14.87;10.37;;;2.20;99.90;;;;;;5094502;28;20179;-84
2022/02/07 13:26:53;;;;;;;16.70;10.47;;;1.70;99.90;;;;;;5077390;28;20594;-84
2022/02/07 13:29:21;;;;;;;17.13;10.63;;;1.70;99.90;;;;;;5091063;28;20189;-85
2022/02/07 13:31:59;;;;;;;18.63;12.60;;;2.50;99.90;;;;;;5093396;28;20193;-87
2022/02/07 13:34:27;;;;;;;15.23;9.70;;;1.80;99.90;;;;;;5076217;28;20178;-84
2022/02/07 13:37:03;;;;;;;13.27;8.47;;;1.80;99.90;;;;;;5076385;28;20230;-84
2022/02/07 13:39:30;;;;;;;9.53;6.50;;;3.40;99.90;;;;;;5092821;28;20209;-86
2022/02/07 13:42:01;;;;;;;10.33;7.60;;;1.80;99.90;;;;;;5065835;28;20206;-85
2022/02/07 13:44:27;;;;;;;11.27;7.53;;;1.60;99.90;;;;;;5078821;28;20749;-87
2022/02/07 13:47:00;;;;;;;10.50;7.73;;;1.70;99.90;;;;;;5061324;28;20221;-87
2022/02/07 13:49:26;;;;;;;10.57;7.83;;;;;;;;;;5094375;28;20643;-86
2022/02/07 13:51:53;;;;;;;13.40;9.07;;;;;;;;;;5075505;28;20198;-86
2022/02/07 13:54:30;;;;;;;13.97;9.40;;;1.60;99.90;;;;;;5074390;28;20201;-85
2022/02/07 13:57:00;;;;;;;24.67;12.27;;;1.60;99.90;;;;;;5090824;28;20216;-86
2022/02/07 13:59:35;;;;;;;18.47;12.67;;;1.60;99.90;;;;;;5088407;28;20228;-86
2022/02/07 14:02:01;;;;;;;15.60;10.10;;;;;;;;;;5107329;28;20188;-85
2022/02/07 14:04:28;;;;;;;18.93;11.63;;;;;;;;;;5112413;28;20227;-84
2022/02/07 14:07:13;;;;;;;18.03;11.40;;;1.40;99.90;;;;;;5111294;28;20242;-84
2022/02/07 14:09:39;;;;;;;14.73;9.70;;;2.50;99.90;;;;;;5113376;28;20176;-85
2022/02/07 14:12:07;;;;;;;17.23;9.77;;;1.30;99.90;;;;;;5110485;28;20665;-84
2022/02/07 14:14:33;;;;;;;18.77;11.10;;;1.20;99.90;;;;;;5110828;28;20196;-85
2022/02/07 14:16:58;;;;;;;16.47;9.07;;;2.40;99.90;;;;;;5108246;28;20189;-84
2022/02/07 14:19:45;;;;;;;13.40;8.60;;;1.20;99.90;;;;;;5094492;28;20202;-84
2022/02/07 14:22:12;;;;;;;13.60;10.10;;;;;;;;;;5110164;28;20174;-84
2022/02/07 14:24:39;;;;;;;16.43;9.70;;;1.00;99.90;;;;;;5103807;28;20212;-84
2022/02/07 14:27:06;;;;;;;10.73;7.23;;;1.00;99.90;;;;;;5103628;28;20189;-86
2022/02/07 14:29:32;;;;;;;9.20;7.47;;;;;;;;;;5108744;28;20182;-86
2022/02/07 14:31:58;;;;;;;14.73;7.23;;;;;;;;;;5111062;28;20209;-84
2022/02/07 14:34:24;;;;;;;12.90;7.93;;;;;;;;;;5113394;28;20707;-83
2022/02/07 14:36:50;;;;;;;8.97;5.63;;;0.90;99.90;;;;;;5112857;28;20178;-84
2022/02/07 14:39:16;;;;;;;12.63;7.73;;;1.20;99.90;;;;;;5096719;28;20217;-86
2022/02/07 14:41:42;;;;;;;10.40;7.00;;;0.80;99.90;;;;;;5106685;28;20610;-85
2022/02/07 14:44:16;;;;;;;10.60;7.60;;;1.90;99.90;;;;;;5102199;28;20173;-87
2022/02/07 14:46:50;;;;;;;13.67;7.17;;;0.80;99.90;;;;;;5099498;28;20167;-84
2022/02/07 14:49:16;;;;;;;12.90;7.30;;;;;;;;;;5085077;28;21611;-84
2022/02/07 14:51:42;;;;;;;10.40;6.33;;;0.80;99.90;;;;;;5099153;28;20179;-84
2022/02/07 14:54:08;;;;;;;9.40;6.37;;;1.80;99.90;;;;;;5087444;28;20592;-85
2022/02/07 14:56:34;;;;;;;13.57;8.57;;;0.80;99.90;;;;;;5112837;28;20182;-84
2022/02/07 14:59:00;;;;;;;11.70;7.00;;;;;;;;;;5112142;28;20247;-84
2022/02/07 15:01:25;;;;;;;15.53;9.27;;;0.80;99.90;;;;;;5112557;28;20650;-87
2022/02/07 15:03:54;;;;;;;28.50;16.97;;;0.80;99.90;;;;;;5098398;28;20186;-85
2022/02/07 15:06:20;;;;;;;32.67;15.07;;;0.80;99.90;;;;;;5131093;28;20184;-85
2022/02/07 15:08:46;;;;;;;21.13;12.80;;;0.70;99.90;;;;;;5108689;28;20175;-85
2022/02/07 15:11:13;;;;;;;19.17;12.13;;;0.80;99.90;;;;;;5126000;28;20189;-86
2022/02/07 15:13:38;;;;;;;19.17;12.47;;;2.20;99.90;;;;;;5138533;28;20173;-87
2022/02/07 15:16:05;;;;;;;20.63;13.53;;;0.80;99.90;;;;;;5112381;28;20196;-86
2022/02/07 15:18:32;;;;;;;21.77;14.20;;;;;;;;;;5137113;28;20203;-89
2022/02/07 15:20:58;;;;;;;19.77;13.67;;;;;;;;;;5135614;28;20197;-85
2022/02/07 15:23:24;;;;;;;20.50;12.13;;;0.90;99.90;;;;;;5122857;28;20202;-87
2022/02/07 15:25:50;;;;;;;18.27;11.43;;;;;;;;;;5141664;28;20198;-85
2022/02/07 15:28:16;;;;;;;17.43;11.80;;;;;;;;;;5140247;28;20170;-90
2022/02/07 15:30:46;;;;;;;18.87;12.40;;;0.90;99.90;;;;;;5134880;28;20196;-92
2022/02/07 15:33:30;;;;;;;25.50;14.30;;;0.80;99.90;;;;;;5139533;28;20165;-85
2022/02/07 15:35:56;;;;;;;15.60;10.80;;;1.20;99.90;;;;;;5119373;28;20201;-86
2022/02/07 15:38:24;;;;;;;19.20;11.43;;;0.90;99.90;;;;;;5126254;28;20323;-85
2022/02/07 15:40:51;;;;;;;18.50;10.23;;;2.20;99.90;;;;;;5116631;28;20214;-86
2022/02/07 15:43:17;;;;;;;21.57;10.80;;;1.00;99.90;;;;;;5119706;28;20625;-86
2022/02/07 15:45:45;;;;;;;19.33;10.93;;;0.90;99.90;;;;;;5112177;28;20201;-87
2022/02/07 15:48:11;;;;;;;22.33;12.50;;;;;;;;;;5115990;28;20189;-86
2022/02/07 15:50:40;;;;;;;18.30;10.63;;;1.00;99.90;;;;;;5121572;28;20199;-86
2022/02/07 15:53:06;;;;;;;16.83;9.93;;;1.00;99.90;;;;;;5100021;28;20185;-86
2022/02/07 15:55:33;;;;;;;16.70;9.23;;;1.00;99.90;;;;;;5119138;27;20193;-86